Time;durP1;ratioP1;P1;durP2;ratioP2;P2;SDS_P1;SDS_P2;PMS_P1;PMS_P2;Temp;Humidity;BMP_temperature;BMP_pressure;BME280_temperature;BME280_humidity;BME280_pressure;Samples;Min_cycle;Max_cycle;Signal;HPM_P1;HPM_P2
2022/05/26 00:00:30;;;;;;;318.85;306.95;;;16.40;99.90;;;;;;5034002;28;20183;-75
2022/05/26 00:02:56;;;;;;;319.42;307.90;;;16.30;99.90;;;;;;5033658;28;20567;-74
2022/05/26 00:05:22;;;;;;;315.05;303.58;;;16.20;99.90;;;;;;5033618;28;20652;-75
2022/05/26 00:07:48;;;;;;;288.80;277.60;;;16.30;99.90;;;;;;5032503;28;20250;-76
2022/05/26 00:10:14;;;;;;;290.40;279.73;;;16.10;99.90;;;;;;5032485;28;20281;-75
2022/05/26 00:12:39;;;;;;;262.35;252.68;;;16.10;99.90;;;;;;5033204;28;20183;-75
2022/05/26 00:15:05;;;;;;;257.83;248.45;;;16.20;99.90;;;;;;5065434;28;20219;-74
2022/05/26 00:17:32;;;;;;;275.63;265.55;;;16.20;99.90;;;;;;5042622;28;20191;-75
2022/05/26 00:19:58;;;;;;;277.83;267.48;;;16.20;99.90;;;;;;5033496;28;20191;-75
2022/05/26 00:22:25;;;;;;;280.95;270.63;;;16.20;99.90;;;;;;5033731;28;20191;-75
2022/05/26 00:24:51;;;;;;;294.38;283.40;;;16.10;99.90;;;;;;5032244;28;20218;-75
2022/05/26 00:27:17;;;;;;;250.77;241.40;;;16.00;99.90;;;;;;5038920;28;20668;-74
2022/05/26 00:29:42;;;;;;;268.77;258.90;;;16.10;99.90;;;;;;5037633;28;20205;-75
2022/05/26 00:32:09;;;;;;;269.23;258.85;;;16.20;99.90;;;;;;5037739;28;20228;-75
2022/05/26 00:34:35;;;;;;;273.85;263.60;;;16.10;99.90;;;;;;5038365;28;20212;-75
2022/05/26 00:37:05;;;;;;;278.17;267.60;;;16.10;99.90;;;;;;5040337;28;20198;-75
2022/05/26 00:39:30;;;;;;;268.42;258.33;;;16.20;99.90;;;;;;5033095;28;20202;-75
2022/05/26 00:42:01;;;;;;;295.75;284.75;;;16.10;99.90;;;;;;5033386;28;20191;-75
2022/05/26 00:44:30;;;;;;;264.38;254.15;;;16.00;99.90;;;;;;5052763;28;20257;-74
2022/05/26 00:47:11;;;;;;;272.90;262.67;;;16.00;99.90;;;;;;5044058;28;20190;-74
2022/05/26 00:49:54;;;;;;;290.27;279.50;;;15.90;99.90;;;;;;5033159;28;20178;-74
2022/05/26 00:52:42;;;;;;;270.83;260.30;;;15.90;99.90;;;;;;5031508;28;20178;-75
2022/05/26 00:55:16;;;;;;;283.25;272.67;;;16.00;99.90;;;;;;5064774;28;20225;-75
2022/05/26 00:57:58;;;;;;;263.75;254.13;;;15.90;99.90;;;;;;5065052;28;20317;-75
2022/05/26 01:00:28;;;;;;;246.10;237.00;;;15.80;99.90;;;;;;5065517;28;20813;-75
2022/05/26 01:02:57;;;;;;;235.07;225.80;;;15.80;99.90;;;;;;5033250;28;20585;-74
2022/05/26 01:05:29;;;;;;;242.88;233.90;;;15.90;99.90;;;;;;5033005;28;20210;-75
2022/05/26 01:07:57;;;;;;;252.90;243.50;;;15.90;99.90;;;;;;5044628;28;20197;-75
2022/05/26 01:10:23;;;;;;;260.58;250.43;;;15.60;99.90;;;;;;5042287;28;20183;-75
2022/05/26 01:12:49;;;;;;;256.83;246.82;;;15.60;99.90;;;;;;5031822;28;20213;-74
2022/05/26 01:15:19;;;;;;;268.85;258.88;;;15.60;99.90;;;;;;5051382;28;20642;-74
2022/05/26 01:18:03;;;;;;;259.80;250.05;;;15.60;99.90;;;;;;5046497;28;20182;-74
2022/05/26 01:20:51;;;;;;;265.58;255.48;;;15.50;99.90;;;;;;5052343;28;20640;-74
2022/05/26 01:23:19;;;;;;;270.10;259.60;;;15.60;99.90;;;;;;5051054;28;20182;-74
2022/05/26 01:25:54;;;;;;;258.02;247.93;;;15.70;99.90;;;;;;5041747;28;20206;-74
2022/05/26 01:28:41;;;;;;;275.88;265.42;;;15.70;99.90;;;;;;5054555;28;20638;-74
2022/05/26 01:31:24;;;;;;;263.38;253.55;;;15.50;99.90;;;;;;5035064;28;20541;-74
2022/05/26 01:33:57;;;;;;;269.85;259.58;;;15.50;99.90;;;;;;5037294;28;20175;-75
2022/05/26 01:36:46;;;;;;;257.73;248.05;;;15.60;99.90;;;;;;5036751;28;20229;-75
2022/05/26 01:39:15;;;;;;;261.23;250.75;;;15.60;99.90;;;;;;5051914;28;20181;-75
2022/05/26 01:42:02;;;;;;;269.83;259.48;;;15.70;99.90;;;;;;5042693;28;20546;-74
2022/05/26 01:44:51;;;;;;;274.63;263.90;;;15.70;99.90;;;;;;5035556;28;20213;-75
2022/05/26 01:47:42;;;;;;;265.55;255.73;;;15.70;99.90;;;;;;5035503;28;20591;-74
2022/05/26 01:50:28;;;;;;;263.58;253.55;;;15.70;99.90;;;;;;5043310;28;20189;-75
2022/05/26 01:53:10;;;;;;;266.67;256.70;;;15.70;99.90;;;;;;5043050;28;20186;-75
2022/05/26 01:55:57;;;;;;;290.98;279.92;;;15.90;99.90;;;;;;5049534;28;20197;-75
2022/05/26 01:58:39;;;;;;;260.02;249.10;;;16.00;99.90;;;;;;5035805;28;20229;-75
2022/05/26 02:01:16;;;;;;;278.08;267.80;;;16.00;99.90;;;;;;5036008;28;20647;-75
2022/05/26 02:03:45;;;;;;;281.50;270.88;;;16.00;99.90;;;;;;5035505;28;20185;-73
2022/05/26 02:06:24;;;;;;;298.02;286.67;;;16.00;99.90;;;;;;5067738;28;20211;-76
2022/05/26 02:08:58;;;;;;;278.95;268.45;;;16.10;99.90;;;;;;5035987;28;20186;-76
2022/05/26 02:11:26;;;;;;;273.00;262.65;;;16.10;99.90;;;;;;5054120;28;20192;-76
2022/05/26 02:14:00;;;;;;;278.02;267.08;;;16.10;99.90;;;;;;5052868;28;20289;-75
2022/05/26 02:16:36;;;;;;;276.52;266.17;;;16.20;99.90;;;;;;5035694;28;20225;-75
2022/05/26 02:19:34;;;;;;;269.92;259.58;;;16.20;99.90;;;;;;5035337;28;20174;-73
2022/05/26 02:22:03;;;;;;;272.30;262.25;;;16.30;99.90;;;;;;5035620;28;20183;-75
2022/05/26 02:24:36;;;;;;;242.02;232.20;;;16.10;99.90;;;;;;5047524;28;20214;-75
2022/05/26 02:27:04;;;;;;;267.50;257.23;;;16.10;99.90;;;;;;5039556;28;20187;-75
2022/05/26 02:32:15;;;;;;;234.98;226.18;;;16.10;99.90;;;;;;5035357;28;20210;-75
2022/05/26 02:34:44;;;;;;;270.27;260.10;;;16.00;99.90;;;;;;5067396;28;20586;-74
2022/05/26 02:37:11;;;;;;;252.05;242.27;;;16.10;99.90;;;;;;5034965;28;20266;-75
2022/05/26 02:39:36;;;;;;;234.15;225.32;;;16.10;99.90;;;;;;5036786;28;20538;-74
2022/05/26 02:42:03;;;;;;;270.17;259.25;;;16.20;99.90;;;;;;5043728;28;20187;-75
2022/05/26 02:44:31;;;;;;;248.00;238.38;;;16.10;99.90;;;;;;5046292;28;20210;-75
2022/05/26 02:47:15;;;;;;;259.40;249.68;;;16.00;99.90;;;;;;5038098;28;20197;-75
2022/05/26 02:49:40;;;;;;;260.08;250.00;;;15.90;99.90;;;;;;5049026;28;20194;-73
2022/05/26 02:52:34;;;;;;;254.43;244.45;;;15.90;99.90;;;;;;5034848;28;20294;-73
2022/05/26 02:55:06;;;;;;;260.52;250.70;;;15.90;99.90;;;;;;5034962;28;20190;-73
2022/05/26 02:58:06;;;;;;;253.05;243.07;;;15.80;99.90;;;;;;5034673;28;20200;-73
2022/05/26 03:00:44;;;;;;;249.02;239.40;;;16.00;99.90;;;;;;5051637;28;20186;-73
2022/05/26 03:03:27;;;;;;;250.10;239.95;;;15.90;99.90;;;;;;5034599;28;20207;-72
2022/05/26 03:06:38;;;;;;;263.08;253.13;;;15.90;99.90;;;;;;5035410;28;20220;-73
2022/05/26 03:09:06;;;;;;;262.58;250.73;;;15.90;99.90;;;;;;5023846;28;20187;-73
2022/05/26 03:11:44;;;;;;;267.17;256.88;;;15.90;99.90;;;;;;5012462;28;20233;-74
2022/05/26 03:14:09;;;;;;;266.88;256.98;;;15.80;99.90;;;;;;5029271;28;20814;-73
2022/05/26 03:16:35;;;;;;;264.02;254.15;;;15.80;99.90;;;;;;5033446;28;20273;-74
2022/05/26 03:19:01;;;;;;;230.52;222.10;;;15.70;99.90;;;;;;5035065;28;20248;-73
2022/05/26 03:21:26;;;;;;;256.48;245.52;;;15.80;99.90;;;;;;5052750;28;20178;-73
2022/05/26 03:23:52;;;;;;;255.50;245.88;;;15.80;99.90;;;;;;5033535;28;20202;-73
2022/05/26 03:26:18;;;;;;;242.15;232.73;;;16.00;99.90;;;;;;5033123;28;20755;-74
2022/05/26 03:28:44;;;;;;;252.82;242.90;;;15.90;99.90;;;;;;5033280;28;20273;-75
2022/05/26 03:31:10;;;;;;;256.33;246.40;;;16.00;99.90;;;;;;5030528;28;20192;-76
2022/05/26 03:41:50;;;;;;;276.58;266.20;;;15.70;99.90;;;;;;5032900;28;20198;-75
2022/05/26 03:44:16;;;;;;;272.80;262.45;;;15.70;99.90;;;;;;5032646;28;20186;-75
2022/05/26 03:46:41;;;;;;;287.30;276.23;;;15.80;99.90;;;;;;5065831;28;20560;-75
2022/05/26 03:49:07;;;;;;;294.42;282.88;;;15.70;99.90;;;;;;5049495;28;20206;-75
2022/05/26 03:51:33;;;;;;;291.23;280.10;;;15.70;99.90;;;;;;5032452;28;20265;-75
2022/05/26 03:53:59;;;;;;;284.73;274.00;;;15.70;99.90;;;;;;5033819;28;20189;-75
2022/05/26 03:56:24;;;;;;;249.30;239.40;;;15.90;99.90;;;;;;5040874;28;20194;-75
2022/05/26 03:58:50;;;;;;;273.42;262.88;;;16.00;99.90;;;;;;5034629;28;20186;-75
2022/05/26 04:01:16;;;;;;;280.35;269.67;;;16.00;99.90;;;;;;5045369;28;20638;-74
2022/05/26 04:03:41;;;;;;;285.65;274.90;;;15.90;99.90;;;;;;5037892;28;20206;-74
2022/05/26 04:06:07;;;;;;;286.27;274.88;;;15.70;99.90;;;;;;5032438;28;20264;-71
2022/05/26 04:08:32;;;;;;;276.02;265.17;;;15.80;99.90;;;;;;5046893;28;20190;-70
2022/05/26 04:10:58;;;;;;;277.45;266.45;;;15.80;99.90;;;;;;5050073;28;20183;-75
2022/05/26 04:13:24;;;;;;;281.90;270.95;;;15.90;99.90;;;;;;5065254;28;20191;-73
2022/05/26 04:15:49;;;;;;;284.30;273.50;;;15.90;99.90;;;;;;5032165;28;20793;-75
2022/05/26 04:18:15;;;;;;;311.98;300.20;;;15.80;99.90;;;;;;5041314;28;20214;-68
2022/05/26 04:20:41;;;;;;;319.67;307.27;;;16.00;99.90;;;;;;5033432;28;20187;-69
2022/05/26 04:23:07;;;;;;;310.10;298.50;;;16.00;99.90;;;;;;5032304;28;20644;-74
2022/05/26 04:25:32;;;;;;;314.80;302.48;;;15.80;99.90;;;;;;5015409;28;20210;-68
2022/05/26 04:27:58;;;;;;;306.35;294.20;;;15.70;99.90;;;;;;5048935;28;20182;-68
2022/05/26 04:30:24;;;;;;;309.20;297.50;;;15.60;99.90;;;;;;5020037;28;20197;-68
2022/05/26 04:32:51;;;;;;;315.52;303.17;;;15.60;99.90;;;;;;5044515;28;20186;-68
2022/05/26 04:35:17;;;;;;;277.00;266.30;;;15.60;99.90;;;;;;5040982;28;20190;-69
2022/05/26 04:37:42;;;;;;;295.30;283.98;;;15.70;99.90;;;;;;5033290;28;20217;-78
2022/05/26 04:40:10;;;;;;;304.63;292.67;;;16.00;99.90;;;;;;5041392;28;20295;-79
2022/05/26 04:42:38;;;;;;;308.50;296.42;;;16.00;99.90;;;;;;5043863;28;20193;-77
2022/05/26 04:45:05;;;;;;;303.48;291.90;;;16.00;99.90;;;;;;5033034;28;20207;-77
2022/05/26 04:47:31;;;;;;;309.40;297.25;;;16.10;99.90;;;;;;5031787;28;20194;-78
2022/05/26 04:49:57;;;;;;;335.63;322.65;;;16.10;99.90;;;;;;5034843;28;20256;-78
2022/05/26 04:52:24;;;;;;;339.73;326.55;;;16.10;99.90;;;;;;5031302;28;20520;-77
2022/05/26 04:54:52;;;;;;;353.05;339.52;;;16.10;99.90;;;;;;5036223;28;20213;-76
2022/05/26 04:57:20;;;;;;;364.48;350.33;;;16.10;99.90;;;;;;5047978;28;20277;-77
2022/05/26 04:59:46;;;;;;;340.48;327.02;;;16.10;99.90;;;;;;5042451;28;20249;-77
2022/05/26 05:02:13;;;;;;;354.48;340.85;;;16.30;99.90;;;;;;5046912;28;20285;-72
2022/05/26 05:04:41;;;;;;;339.58;326.40;;;16.20;99.90;;;;;;5055653;28;20197;-70
2022/05/26 05:07:09;;;;;;;368.30;354.08;;;16.30;99.90;;;;;;5070751;28;20272;-71
2022/05/26 05:09:36;;;;;;;348.17;334.23;;;16.40;99.90;;;;;;5043156;28;20178;-70
2022/05/26 05:12:03;;;;;;;310.08;297.27;;;16.60;99.90;;;;;;5050101;28;20232;-76
2022/05/26 05:14:34;;;;;;;331.40;318.00;;;16.70;99.90;;;;;;5035194;28;20217;-71
2022/05/26 05:17:00;;;;;;;310.80;299.20;;;17.00;99.90;;;;;;5035452;28;20639;-72
2022/05/26 05:19:26;;;;;;;357.65;343.45;;;17.00;99.90;;;;;;5036169;28;20274;-72
2022/05/26 05:22:00;;;;;;;354.63;340.90;;;17.00;99.90;;;;;;5055290;28;20190;-72
2022/05/26 05:24:41;;;;;;;347.65;334.13;;;16.90;99.90;;;;;;5036947;28;20205;-71
2022/05/26 05:27:23;;;;;;;385.90;370.00;;;16.90;99.90;;;;;;5036688;28;20198;-72
2022/05/26 05:29:51;;;;;;;375.02;360.58;;;16.90;99.90;;;;;;5069912;28;20534;-72
2022/05/26 05:32:26;;;;;;;367.05;352.70;;;17.00;99.90;;;;;;5055427;28;20636;-72
2022/05/26 05:35:02;;;;;;;363.52;349.70;;;17.10;99.90;;;;;;5045943;28;20178;-74
2022/05/26 05:37:31;;;;;;;368.60;354.17;;;17.00;99.90;;;;;;5051900;28;20197;-72
2022/05/26 05:39:56;;;;;;;367.50;353.60;;;17.00;99.90;;;;;;5035022;28;20175;-71
2022/05/26 05:42:23;;;;;;;391.42;376.58;;;17.20;99.90;;;;;;5035489;28;20183;-71
2022/05/26 05:44:48;;;;;;;382.05;366.77;;;17.00;99.90;;;;;;5045214;28;20218;-72
2022/05/26 05:47:14;;;;;;;364.20;350.05;;;17.10;99.90;;;;;;5035099;28;20279;-72
2022/05/26 05:49:40;;;;;;;384.48;369.00;;;17.10;99.90;;;;;;5046084;28;20181;-72
2022/05/26 05:52:12;;;;;;;381.60;366.60;;;17.20;99.90;;;;;;5035386;28;20183;-72
2022/05/26 05:54:38;;;;;;;346.85;333.65;;;17.30;99.90;;;;;;5034610;28;20183;-72
2022/05/26 05:57:04;;;;;;;385.08;370.13;;;17.40;99.90;;;;;;5044689;28;20190;-72
2022/05/26 05:59:30;;;;;;;380.73;365.83;;;17.30;99.90;;;;;;5053571;28;20185;-71
2022/05/26 06:01:56;;;;;;;359.83;345.95;;;17.40;99.90;;;;;;5047762;28;20194;-72
2022/05/26 06:04:22;;;;;;;376.35;361.98;;;17.50;99.90;;;;;;5048228;28;20545;-72
2022/05/26 06:06:48;;;;;;;373.17;358.13;;;17.50;99.90;;;;;;5036514;28;20187;-71
2022/05/26 06:09:15;;;;;;;393.63;378.20;;;17.60;99.90;;;;;;5035296;28;20252;-72
2022/05/26 06:11:42;;;;;;;409.13;392.55;;;17.70;99.90;;;;;;5036198;28;20269;-71
2022/05/26 06:14:07;;;;;;;351.77;337.98;;;18.00;99.90;;;;;;5035241;28;20237;-72
2022/05/26 06:16:33;;;;;;;365.25;351.10;;;18.00;99.90;;;;;;5050729;28;20191;-72
2022/05/26 06:18:59;;;;;;;354.48;340.70;;;18.00;99.90;;;;;;5027800;28;20194;-72
2022/05/26 06:21:25;;;;;;;371.85;357.05;;;18.20;99.90;;;;;;5043371;28;20589;-72
2022/05/26 06:23:55;;;;;;;426.92;409.52;;;18.50;99.90;;;;;;5034750;28;20201;-72
2022/05/26 06:26:20;;;;;;;451.33;433.17;;;18.80;99.90;;;;;;5035140;28;20660;-72
2022/05/26 06:31:30;;;;;;;421.90;405.05;;;18.60;99.90;;;;;;5035019;28;20225;-71
2022/05/26 06:39:09;;;;;;;404.05;388.27;;;19.10;99.90;;;;;;5042193;28;20194;-71
2022/05/26 06:44:19;;;;;;;485.05;464.73;;;19.10;99.90;;;;;;5043770;28;20276;-72
2022/05/26 06:46:45;;;;;;;489.25;469.05;;;19.10;99.90;;;;;;5038958;28;20633;-71
2022/05/26 06:49:11;;;;;;;499.08;477.35;;;19.40;99.90;;;;;;5033509;28;20187;-72
2022/05/26 06:51:39;;;;;;;512.58;490.63;;;19.60;99.90;;;;;;5034969;28;20655;-72
2022/05/26 06:54:05;;;;;;;545.72;521.75;;;19.50;99.90;;;;;;5035050;28;20240;-73
2022/05/26 06:56:31;;;;;;;538.67;515.53;;;19.30;99.90;;;;;;5043520;28;20190;-73
2022/05/26 06:58:57;;;;;;;567.67;542.50;;;19.60;99.90;;;;;;5040719;28;20197;-73
2022/05/26 07:01:22;;;;;;;587.25;560.67;;;20.30;99.90;;;;;;5052149;28;20247;-73
2022/05/26 07:03:48;;;;;;;661.22;628.75;;;21.40;99.90;;;;;;5064410;28;20561;-73
2022/05/26 07:06:20;;;;;;;697.42;662.30;;;22.20;99.90;;;;;;5049343;28;20581;-74
2022/05/26 07:08:46;;;;;;;699.42;664.33;;;22.50;99.90;;;;;;5034360;28;20647;-73
2022/05/26 07:11:13;;;;;;;735.75;697.15;;;22.60;99.90;;;;;;5034452;28;20312;-72
2022/05/26 07:13:39;;;;;;;777.65;734.45;;;23.60;99.90;;;;;;5033078;28;20187;-73
2022/05/26 07:16:06;;;;;;;825.53;777.13;;;24.00;99.90;;;;;;5047849;28;20200;-73
2022/05/26 07:18:32;;;;;;;829.58;780.92;;;23.70;99.90;;;;;;5047567;28;20182;-73
2022/05/26 07:20:57;;;;;;;869.65;817.05;;;24.30;99.90;;;;;;5046732;28;20545;-73
2022/05/26 07:23:23;;;;;;;876.35;822.88;;;24.70;99.90;;;;;;5036828;28;20619;-73
2022/05/26 07:25:49;;;;;;;890.95;835.50;;;23.80;99.90;;;;;;5047480;28;20620;-73
2022/05/26 07:28:14;;;;;;;900.40;844.85;;;23.10;99.90;;;;;;5033320;28;20190;-73
2022/05/26 07:30:41;;;;;;;897.22;841.63;;;22.90;99.90;;;;;;5034597;28;20186;-73
2022/05/26 07:33:08;;;;;;;848.63;797.40;;;22.20;99.90;;;;;;5033776;28;20201;-73
2022/05/26 07:35:33;;;;;;;867.67;815.03;;;23.50;99.90;;;;;;5032966;28;20186;-73
2022/05/26 07:43:34;;;;;;;931.33;872.35;;;24.10;99.90;;;;;;5032953;28;20270;-72
2022/05/26 07:46:00;;;;;;;919.08;861.55;;;23.30;99.90;;;;;;5032485;28;20199;-73
2022/05/26 07:48:25;;;;;;;907.55;850.95;;;22.70;99.90;;;;;;5033160;28;20197;-73
2022/05/26 07:50:51;;;;;;;897.25;842.13;;;22.30;99.90;;;;;;5065814;28;20186;-73
2022/05/26 07:53:17;;;;;;;870.08;817.25;;;22.10;99.90;;;;;;5032814;28;20190;-73
2022/05/26 07:55:42;;;;;;;841.40;791.95;;;22.20;99.90;;;;;;5047182;28;20217;-73
2022/05/26 07:58:12;;;;;;;823.78;776.42;;;22.40;99.90;;;;;;5036361;28;20190;-74
2022/05/26 08:00:39;;;;;;;809.97;764.00;;;22.40;99.90;;;;;;5050534;28;20182;-73
2022/05/26 08:03:06;;;;;;;811.08;764.58;;;22.10;99.90;;;;;;5033336;28;20209;-73
2022/05/26 08:05:32;;;;;;;829.88;781.85;;;22.00;99.90;;;;;;5033157;28;20217;-73
2022/05/26 08:07:58;;;;;;;802.83;757.03;;;22.10;99.90;;;;;;5034064;28;20187;-73
2022/05/26 08:10:24;;;;;;;837.50;788.22;;;22.60;99.90;;;;;;5034075;28;20193;-73
2022/05/26 08:12:49;;;;;;;810.58;764.30;;;22.60;99.90;;;;;;5032550;28;20183;-73
2022/05/26 08:15:15;;;;;;;839.95;790.58;;;22.60;99.90;;;;;;5033671;28;20186;-74
2022/05/26 08:17:41;;;;;;;860.15;807.97;;;23.30;99.90;;;;;;5033684;28;20195;-74
2022/05/26 08:20:08;;;;;;;892.22;837.53;;;24.70;99.90;;;;;;5032378;28;20186;-74
2022/05/26 08:22:34;;;;;;;933.55;874.95;;;25.00;99.90;;;;;;5035445;28;20189;-74
2022/05/26 08:25:02;;;;;;;948.75;888.15;;;25.10;99.90;;;;;;5032120;28;20202;-75
2022/05/26 08:27:28;;;;;;;971.53;908.88;;;24.60;99.90;;;;;;5031985;28;20182;-74
2022/05/26 08:29:54;;;;;;;973.95;911.08;;;24.90;99.90;;;;;;5065152;28;20272;-75
2022/05/26 08:32:21;;;;;;;985.03;920.85;;;25.00;99.90;;;;;;5032172;28;20222;-74
2022/05/26 08:34:47;;;;;;;1006.22;939.10;;;25.10;99.90;;;;;;5032172;28;20190;-75
2022/05/26 08:37:15;;;;;;;994.67;929.50;;;25.10;99.90;;;;;;5065397;28;20193;-75
2022/05/26 08:39:40;;;;;;;974.22;910.92;;;24.00;99.90;;;;;;5033226;28;20178;-75
2022/05/26 08:42:17;;;;;;;949.20;888.83;;;23.40;99.90;;;;;;5060020;28;20252;-74
2022/05/26 08:44:43;;;;;;;911.00;854.40;;;22.90;99.90;;;;;;5037941;28;20216;-74
2022/05/26 08:47:22;;;;;;;915.05;858.28;;;22.80;99.90;;;;;;5048950;28;20571;-74
2022/05/26 08:49:57;;;;;;;912.33;855.65;;;23.20;99.90;;;;;;5033089;28;20166;-73
2022/05/26 08:52:38;;;;;;;927.70;869.25;;;23.10;99.90;;;;;;5046259;28;20178;-73
2022/05/26 08:55:15;;;;;;;911.55;854.58;;;23.10;99.90;;;;;;5032919;28;20179;-74
2022/05/26 08:57:41;;;;;;;894.42;839.22;;;23.60;99.90;;;;;;5040406;28;20527;-74
2022/05/26 09:00:13;;;;;;;916.58;859.28;;;24.30;99.90;;;;;;5052393;28;20182;-75
2022/05/26 09:02:40;;;;;;;949.45;889.10;;;24.40;99.90;;;;;;5032962;28;20256;-74
2022/05/26 09:05:16;;;;;;;945.00;885.13;;;23.90;99.90;;;;;;5046290;28;20280;-74
2022/05/26 09:14:04;;;;;;;928.22;869.72;;;24.10;99.90;;;;;;5031775;28;20728;-75
2022/05/26 09:16:34;;;;;;;942.50;882.42;;;24.50;99.90;;;;;;5064593;28;20213;-73
2022/05/26 09:19:20;;;;;;;946.53;886.45;;;24.80;99.90;;;;;;5033181;28;20185;-75
2022/05/26 09:21:48;;;;;;;968.88;906.55;;;25.20;99.90;;;;;;5040592;28;20285;-74
2022/05/26 09:24:47;;;;;;;955.53;894.17;;;25.40;99.90;;;;;;5032956;28;20510;-74
2022/05/26 09:27:29;;;;;;;947.85;887.42;;;24.50;99.90;;;;;;5037483;28;20199;-74
2022/05/26 09:30:33;;;;;;;929.08;870.40;;;23.90;99.90;;;;;;5036748;28;20272;-73
2022/05/26 09:33:00;;;;;;;907.90;851.33;;;23.70;99.90;;;;;;5030744;28;20199;-73
2022/05/26 09:35:28;;;;;;;920.05;862.45;;;23.60;99.90;;;;;;5067436;28;20642;-74
2022/05/26 09:38:02;;;;;;;918.85;861.42;;;23.80;99.90;;;;;;5053101;28;20182;-73
2022/05/26 09:40:35;;;;;;;907.33;850.92;;;23.80;99.90;;;;;;5036529;28;20182;-73
2022/05/26 09:43:16;;;;;;;921.92;864.33;;;23.80;99.90;;;;;;5053516;28;20235;-74
2022/05/26 09:45:45;;;;;;;918.38;861.03;;;23.50;99.90;;;;;;5045260;28;20206;-74
2022/05/26 09:48:32;;;;;;;919.97;862.30;;;23.50;99.90;;;;;;5053011;28;20189;-73
2022/05/26 09:51:27;;;;;;;912.85;856.00;;;23.20;99.90;;;;;;5047515;28;20186;-74
2022/05/26 09:53:55;;;;;;;884.38;830.13;;;22.60;99.90;;;;;;5050465;28;20208;-74
2022/05/26 09:56:40;;;;;;;868.80;816.13;;;22.40;99.90;;;;;;5038570;28;20222;-74
2022/05/26 09:59:26;;;;;;;880.22;826.65;;;22.50;99.90;;;;;;5036362;28;20232;-74
2022/05/26 10:02:08;;;;;;;872.80;820.03;;;22.60;99.90;;;;;;5036537;28;20232;-73
2022/05/26 10:04:40;;;;;;;859.40;807.92;;;22.50;99.90;;;;;;5035565;28;20675;-74
2022/05/26 10:07:28;;;;;;;861.00;809.38;;;22.50;99.90;;;;;;5079547;28;20186;-73
2022/05/26 10:10:01;;;;;;;857.80;806.00;;;22.70;99.90;;;;;;5044051;28;20200;-74
2022/05/26 10:12:42;;;;;;;870.75;818.20;;;22.70;99.90;;;;;;5035782;28;20186;-74
2022/05/26 10:15:29;;;;;;;868.10;815.72;;;22.70;99.90;;;;;;5035981;28;20262;-74
2022/05/26 10:18:07;;;;;;;850.42;800.33;;;22.60;99.90;;;;;;5039435;28;20220;-74
2022/05/26 10:20:35;;;;;;;858.17;807.33;;;22.70;99.90;;;;;;5037522;28;20189;-74
2022/05/26 10:23:38;;;;;;;849.42;799.00;;;22.60;99.90;;;;;;5046094;28;20639;-73
2022/05/26 10:26:53;;;;;;;858.40;806.80;;;22.70;99.90;;;;;;5035617;28;20261;-72
2022/05/26 10:29:32;;;;;;;838.58;789.65;;;22.60;99.90;;;;;;5057522;28;20191;-73
2022/05/26 10:32:15;;;;;;;842.33;792.35;;;22.50;99.90;;;;;;5045438;28;20194;-74
2022/05/26 10:35:02;;;;;;;850.20;799.40;;;22.80;99.90;;;;;;5041977;28;20193;-73
2022/05/26 10:38:11;;;;;;;844.30;794.67;;;22.80;99.90;;;;;;5035780;28;20261;-73
2022/05/26 10:40:55;;;;;;;854.90;803.75;;;23.00;99.90;;;;;;5033851;28;20678;-72
2022/05/26 10:43:51;;;;;;;857.53;806.20;;;23.30;99.90;;;;;;5035581;28;20265;-72
2022/05/26 10:46:18;;;;;;;865.15;813.10;;;23.50;99.90;;;;;;5034532;28;20202;-73
2022/05/26 10:48:47;;;;;;;883.20;829.42;;;23.60;99.90;;;;;;5070382;28;20587;-73
2022/05/26 10:51:24;;;;;;;885.03;830.92;;;23.60;99.90;;;;;;5053032;28;20650;-74
2022/05/26 10:54:28;;;;;;;879.70;826.05;;;23.40;99.90;;;;;;5033729;28;20181;-74
2022/05/26 10:57:09;;;;;;;885.78;831.40;;;23.20;99.90;;;;;;5031471;28;20210;-75
2022/05/26 10:59:48;;;;;;;893.10;838.58;;;23.20;99.90;;;;;;5035026;28;20583;-73
2022/05/26 11:02:58;;;;;;;890.58;836.08;;;23.10;99.90;;;;;;5038574;28;20288;-73
2022/05/26 11:05:38;;;;;;;869.80;817.22;;;22.90;99.90;;;;;;5044293;28;20211;-73
2022/05/26 11:08:22;;;;;;;874.80;821.50;;;23.20;99.90;;;;;;5040887;28;20255;-74
2022/05/26 11:10:55;;;;;;;890.38;835.60;;;23.60;99.90;;;;;;5044934;28;20640;-73
2022/05/26 11:13:37;;;;;;;896.35;841.33;;;23.70;99.90;;;;;;5034868;28;20214;-73
2022/05/26 11:19:37;;;;;;;886.67;832.72;;;23.60;99.90;;;;;;5034537;28;20189;-72
2022/05/26 11:22:03;;;;;;;886.13;831.83;;;23.50;99.90;;;;;;5031435;28;20640;-72
2022/05/26 11:24:29;;;;;;;876.97;823.40;;;23.20;99.90;;;;;;5034460;28;20187;-72
2022/05/26 11:27:05;;;;;;;887.47;832.42;;;23.30;99.90;;;;;;5076154;28;20194;-73
2022/05/26 11:29:37;;;;;;;897.10;841.55;;;23.30;99.90;;;;;;5034359;28;20186;-73
2022/05/26 11:38:25;;;;;;;874.00;821.30;;;23.30;99.90;;;;;;5034100;28;20201;-73
2022/05/26 11:41:00;;;;;;;893.42;838.58;;;23.40;99.90;;;;;;5062586;28;20194;-73
2022/05/26 11:43:29;;;;;;;884.88;830.88;;;23.30;99.90;;;;;;5038307;28;20185;-73
2022/05/26 11:45:57;;;;;;;880.03;826.00;;;23.10;99.90;;;;;;5051702;28;20210;-74
2022/05/26 11:48:32;;;;;;;887.15;832.53;;;23.30;99.90;;;;;;5032583;28;20187;-73
2022/05/26 11:50:59;;;;;;;893.38;838.33;;;23.60;99.90;;;;;;5040927;28;20190;-74
2022/05/26 11:53:28;;;;;;;924.40;866.95;;;23.70;99.90;;;;;;5047390;28;20194;-74
2022/05/26 11:55:58;;;;;;;899.67;843.63;;;23.80;99.90;;;;;;5033467;28;20252;-74
2022/05/26 11:58:36;;;;;;;915.25;858.33;;;24.00;99.90;;;;;;5033801;28;20171;-73
2022/05/26 12:01:33;;;;;;;919.05;861.47;;;24.00;99.90;;;;;;5033462;28;20182;-74
2022/05/26 12:04:05;;;;;;;920.60;863.10;;;24.00;99.90;;;;;;5051662;28;20189;-74
2022/05/26 12:06:51;;;;;;;920.83;862.90;;;24.30;99.90;;;;;;5034389;28;20663;-74
2022/05/26 12:09:39;;;;;;;919.13;862.08;;;24.10;99.90;;;;;;5033742;28;20187;-75
2022/05/26 12:12:17;;;;;;;930.00;871.70;;;23.90;99.90;;;;;;5032592;28;20190;-74
2022/05/26 12:14:46;;;;;;;935.95;876.83;;;23.70;99.90;;;;;;5033844;28;20539;-74
2022/05/26 12:17:39;;;;;;;941.78;882.33;;;24.00;99.90;;;;;;5041420;28;20185;-74
2022/05/26 12:20:11;;;;;;;929.35;871.20;;;23.80;99.90;;;;;;5033031;28;20229;-74
2022/05/26 12:22:37;;;;;;;949.65;889.72;;;23.70;99.90;;;;;;5032462;28;20214;-73
2022/05/26 12:25:21;;;;;;;946.38;886.22;;;24.00;99.90;;;;;;5033252;28;20941;-74
2022/05/26 12:27:55;;;;;;;946.03;886.20;;;23.90;99.90;;;;;;5033346;28;20182;-74
2022/05/26 12:30:45;;;;;;;942.30;882.65;;;23.80;99.90;;;;;;5065200;28;20200;-74
2022/05/26 12:33:22;;;;;;;941.80;882.50;;;23.80;99.90;;;;;;5033680;28;20191;-73
2022/05/26 12:36:18;;;;;;;927.78;869.58;;;23.60;99.90;;;;;;5031871;28;20572;-74
2022/05/26 12:38:44;;;;;;;931.63;873.33;;;23.60;99.90;;;;;;5033299;28;20186;-73
2022/05/26 12:41:25;;;;;;;940.40;881.17;;;23.80;99.90;;;;;;5033264;28;20293;-73
2022/05/26 12:44:12;;;;;;;941.78;882.13;;;23.60;99.90;;;;;;5031970;28;20590;-74
2022/05/26 12:46:50;;;;;;;932.20;873.42;;;23.60;99.90;;;;;;5031904;28;20272;-74
2022/05/26 12:49:43;;;;;;;935.08;876.08;;;23.70;99.90;;;;;;5043880;28;20585;-74
2022/05/26 12:52:17;;;;;;;921.25;863.63;;;24.00;99.90;;;;;;5039217;28;20192;-74
2022/05/26 12:55:01;;;;;;;926.58;868.72;;;24.30;99.90;;;;;;5032837;28;20600;-73
2022/05/26 12:57:31;;;;;;;926.92;868.90;;;24.60;99.90;;;;;;5046710;28;20917;-73
2022/05/26 13:00:37;;;;;;;961.85;900.55;;;24.60;99.90;;;;;;5031703;28;20186;-74
2022/05/26 13:03:13;;;;;;;977.95;914.95;;;24.10;99.90;;;;;;5029413;28;20292;-74
2022/05/26 13:05:42;;;;;;;958.72;897.53;;;24.10;99.90;;;;;;5030551;28;20206;-73
2022/05/26 13:08:16;;;;;;;963.30;901.55;;;24.20;99.90;;;;;;5031823;28;20214;-73
2022/05/26 13:10:43;;;;;;;949.47;889.08;;;24.10;99.90;;;;;;5067297;28;20580;-73
2022/05/26 13:13:33;;;;;;;953.78;892.92;;;24.30;99.90;;;;;;5035513;28;20187;-74
2022/05/26 13:16:21;;;;;;;935.95;877.22;;;24.20;99.90;;;;;;5036960;28;20191;-73
2022/05/26 13:18:47;;;;;;;958.25;896.83;;;24.10;99.90;;;;;;5036734;28;20178;-73